createdAt,value
2022-10-15T00:01:48.315Z,17.25
2022-10-15T00:04:17.954Z,17.10
2022-10-15T00:06:45.703Z,17.05
2022-10-15T00:09:13.430Z,17.10
2022-10-15T00:11:41.211Z,17.09
2022-10-15T00:14:08.968Z,16.97
2022-10-15T00:16:36.760Z,16.87
2022-10-15T00:19:04.514Z,16.93
2022-10-15T00:21:33.609Z,16.75
2022-10-15T00:24:01.363Z,16.61
2022-10-15T00:26:30.117Z,16.49
2022-10-15T00:29:00.227Z,16.60
2022-10-15T00:31:29.688Z,16.59
2022-10-15T00:33:58.814Z,16.71
2022-10-15T00:36:27.799Z,16.78
2022-10-15T00:38:57.281Z,16.76
2022-10-15T00:41:28.257Z,16.85
2022-10-15T00:43:58.481Z,16.73
2022-10-15T00:46:29.329Z,16.60
2022-10-15T00:48:59.933Z,16.62
2022-10-15T00:51:32.632Z,16.55
2022-10-15T00:54:01.956Z,16.48
2022-10-15T00:56:31.817Z,16.37
2022-10-15T00:58:59.773Z,16.37
2022-10-15T01:01:27.549Z,16.35
2022-10-15T01:03:56.765Z,16.27
2022-10-15T01:06:25.301Z,16.18
2022-10-15T01:08:53.106Z,16.12
2022-10-15T01:11:31.969Z,16.08
2022-10-15T01:14:17.100Z,15.83
2022-10-15T01:16:48.471Z,15.93
2022-10-15T01:19:29.316Z,16.09
2022-10-15T01:22:03.287Z,16.24
2022-10-15T01:24:45.522Z,16.12
2022-10-15T01:27:29.442Z,16.21
2022-10-15T01:30:14.547Z,16.24
2022-10-15T01:32:49.236Z,16.17
2022-10-15T01:35:26.541Z,16.19
2022-10-15T01:37:57.185Z,15.99
2022-10-15T01:40:29.577Z,16.10
2022-10-15T01:42:59.065Z,15.89
2022-10-15T01:45:37.381Z,16.12
2022-10-15T01:48:21.008Z,16.11
2022-10-15T01:50:52.334Z,16.08
2022-10-15T01:53:26.211Z,16.02
2022-10-15T01:55:55.850Z,16.04
2022-10-15T01:58:25.699Z,16.06
2022-10-15T02:00:55.657Z,16.10
2022-10-15T02:03:23.489Z,16.20
2022-10-15T02:05:54.790Z,16.08
2022-10-15T02:08:29.889Z,16.07
2022-10-15T02:11:01.581Z,16.12
2022-10-15T02:13:34.362Z,16.06
2022-10-15T02:16:10.565Z,15.94
2022-10-15T02:18:42.436Z,15.80
2022-10-15T02:21:14.771Z,15.78
2022-10-15T02:23:47.546Z,15.68
2022-10-15T02:26:16.496Z,15.82
2022-10-15T02:28:47.359Z,15.83
2022-10-15T02:31:17.747Z,15.85
2022-10-15T02:33:46.249Z,15.79
2022-10-15T02:36:15.322Z,15.82
2022-10-15T02:38:44.431Z,15.85
2022-10-15T02:41:13.012Z,15.88
2022-10-15T02:43:42.170Z,15.96
2022-10-15T02:46:13.913Z,15.94
2022-10-15T02:48:44.321Z,15.96
2022-10-15T02:51:12.114Z,15.94
2022-10-15T02:53:39.894Z,15.97
2022-10-15T02:56:07.927Z,16.00
2022-10-15T02:58:35.849Z,16.00
2022-10-15T03:01:04.146Z,15.95
2022-10-15T03:03:32.113Z,15.90
2022-10-15T03:06:01.697Z,15.94
2022-10-15T03:08:29.636Z,16.00
2022-10-15T03:10:57.365Z,15.96
2022-10-15T03:13:25.319Z,15.81
2022-10-15T03:15:53.822Z,15.61
2022-10-15T03:18:23.105Z,15.77
2022-10-15T03:20:56.605Z,15.78
2022-10-15T03:23:26.647Z,15.69
2022-10-15T03:26:04.765Z,15.43
2022-10-15T03:28:33.127Z,15.43
2022-10-15T03:31:01.470Z,15.55
2022-10-15T03:33:30.349Z,15.61
2022-10-15T03:35:58.454Z,15.66
2022-10-15T03:38:28.541Z,15.62
2022-10-15T03:40:56.403Z,15.71
2022-10-15T03:43:32.344Z,15.77
2022-10-15T03:46:03.308Z,15.65
2022-10-15T03:48:31.798Z,15.73
2022-10-15T03:50:59.726Z,15.70
2022-10-15T03:53:28.870Z,15.63
2022-10-15T03:55:56.712Z,15.55
2022-10-15T03:58:24.509Z,15.62
2022-10-15T04:00:56.786Z,15.55
2022-10-15T04:03:24.522Z,15.49
2022-10-15T04:05:54.588Z,15.40
2022-10-15T04:08:25.910Z,15.15
2022-10-15T04:10:55.240Z,14.91
2022-10-15T04:13:22.978Z,15.03
2022-10-15T04:15:50.715Z,15.11
2022-10-15T04:18:20.549Z,15.12
2022-10-15T04:20:51.747Z,15.20
2022-10-15T04:23:22.886Z,15.16
2022-10-15T04:26:10.581Z,15.10
2022-10-15T04:28:38.404Z,15.23
2022-10-15T04:31:06.592Z,15.20
2022-10-15T04:33:35.212Z,15.01
2022-10-15T04:36:04.372Z,15.05
2022-10-15T04:38:46.200Z,15.10
2022-10-15T04:41:15.432Z,15.15
2022-10-15T04:43:54.536Z,15.14
2022-10-15T04:46:22.668Z,14.99
2022-10-15T04:48:52.662Z,14.94
2022-10-15T04:51:21.514Z,14.80
2022-10-15T04:54:11.181Z,14.71
2022-10-15T04:56:50.086Z,14.71
2022-10-15T04:59:18.239Z,14.87
2022-10-15T05:02:24.237Z,15.05
2022-10-15T05:04:57.210Z,15.14
2022-10-15T05:07:26.396Z,15.21
2022-10-15T05:09:55.719Z,15.26
2022-10-15T05:12:24.842Z,15.28
2022-10-15T05:14:54.333Z,15.24
2022-10-15T05:17:27.779Z,15.33
2022-10-15T05:19:56.273Z,15.35
2022-10-15T05:22:27.749Z,15.33
2022-10-15T05:24:59.537Z,15.33
2022-10-15T05:27:36.447Z,15.25
2022-10-15T05:30:06.523Z,15.25
2022-10-15T05:32:43.702Z,15.09
2022-10-15T05:35:13.696Z,15.11
2022-10-15T05:37:53.543Z,15.17
2022-10-15T05:40:22.159Z,15.18
2022-10-15T05:43:11.682Z,15.22
2022-10-15T05:45:39.465Z,15.24
2022-10-15T05:48:08.269Z,15.22
2022-10-15T05:50:36.910Z,15.19
2022-10-15T05:53:08.411Z,15.34
2022-10-15T05:55:47.398Z,15.27
2022-10-15T05:58:16.512Z,15.30
2022-10-15T06:00:44.983Z,15.17
2022-10-15T06:03:14.735Z,15.11
2022-10-15T06:05:42.519Z,15.18
2022-10-15T06:08:10.289Z,14.76
2022-10-15T06:10:38.742Z,14.74
2022-10-15T06:13:06.786Z,14.79
2022-10-15T06:15:35.984Z,14.83
2022-10-15T06:18:06.133Z,14.82
2022-10-15T06:20:34.476Z,14.66
2022-10-15T06:23:02.589Z,14.29
2022-10-15T06:25:31.703Z,14.47
2022-10-15T06:28:02.400Z,14.71
2022-10-15T06:30:41.606Z,14.65
2022-10-15T06:33:09.449Z,14.82
2022-10-15T06:35:37.417Z,14.64
2022-10-15T06:38:06.505Z,15.13
2022-10-15T06:40:34.441Z,15.45
2022-10-15T06:43:07.887Z,15.58
2022-10-15T06:45:36.561Z,15.87
2022-10-15T06:48:08.715Z,15.76
2022-10-15T06:50:38.395Z,15.63
2022-10-15T06:53:06.330Z,15.45
2022-10-15T06:55:34.498Z,15.58
2022-10-15T06:58:02.304Z,15.67
2022-10-15T07:00:30.574Z,15.41
2022-10-15T07:02:58.405Z,15.44
2022-10-15T07:05:27.506Z,15.43
2022-10-15T07:07:55.474Z,15.61
2022-10-15T07:10:26.293Z,15.84
2022-10-15T07:12:54.864Z,15.89
2022-10-15T07:15:23.302Z,15.91
2022-10-15T07:17:51.651Z,15.95
2022-10-15T07:20:21.931Z,16.24
2022-10-15T07:22:57.381Z,16.11
2022-10-15T07:25:30.411Z,16.07
2022-10-15T07:27:58.617Z,16.33
2022-10-15T07:30:28.415Z,16.32
2022-10-15T07:32:57.572Z,16.28
2022-10-15T07:35:25.414Z,16.11
2022-10-15T07:37:54.766Z,16.14
2022-10-15T07:40:22.537Z,16.06
2022-10-15T07:42:54.031Z,15.93
2022-10-15T07:45:23.221Z,16.40
2022-10-15T07:47:51.002Z,16.29
2022-10-15T07:50:18.874Z,16.59
2022-10-15T07:52:47.764Z,16.39
2022-10-15T07:55:17.149Z,16.77
2022-10-15T07:57:44.903Z,16.57
2022-10-15T08:00:13.624Z,16.61
2022-10-15T08:02:41.429Z,16.94
2022-10-15T08:05:09.905Z,17.05
2022-10-15T08:07:37.613Z,17.45
2022-10-15T08:10:13.391Z,17.08
2022-10-15T08:12:42.865Z,16.70
2022-10-15T08:15:11.452Z,16.60
2022-10-15T08:17:39.254Z,16.72
2022-10-15T08:20:07.815Z,16.80
2022-10-15T08:22:35.790Z,17.01
2022-10-15T08:25:03.739Z,16.93
2022-10-15T08:27:31.470Z,17.37
2022-10-15T08:30:03.203Z,17.21
2022-10-15T08:32:30.980Z,16.82
2022-10-15T08:34:58.757Z,16.97
2022-10-15T08:37:26.559Z,17.64
2022-10-15T08:39:54.346Z,18.09
2022-10-15T08:42:26.748Z,17.98
2022-10-15T08:44:57.210Z,17.76
2022-10-15T08:47:30.916Z,17.51
2022-10-15T08:50:00.321Z,17.67
2022-10-15T08:52:41.569Z,17.88
2022-10-15T08:55:11.506Z,18.12
2022-10-15T08:57:43.310Z,18.36
2022-10-15T09:00:15.596Z,18.46
2022-10-15T09:02:51.807Z,18.45
2022-10-15T09:05:28.399Z,18.15
2022-10-15T09:07:59.456Z,18.31
2022-10-15T09:10:37.246Z,18.89
2022-10-15T09:13:13.856Z,18.78
2022-10-15T09:15:49.980Z,19.12
2022-10-15T09:18:23.180Z,19.25
2022-10-15T09:20:51.380Z,19.19
2022-10-15T09:23:21.834Z,19.16
2022-10-15T09:25:56.467Z,19.26
2022-10-15T09:28:27.023Z,19.21
2022-10-15T09:30:56.903Z,19.42
2022-10-15T09:33:34.792Z,19.21
2022-10-15T09:36:10.108Z,18.74
2022-10-15T09:38:44.771Z,18.89
2022-10-15T09:41:18.645Z,18.96
2022-10-15T09:43:48.811Z,19.09
2022-10-15T09:46:16.545Z,19.29
2022-10-15T09:48:49.136Z,19.29
2022-10-15T09:51:25.612Z,18.91
2022-10-15T09:54:01.183Z,18.97
2022-10-15T09:56:33.409Z,19.07
2022-10-15T09:59:02.689Z,19.38
2022-10-15T10:01:33.170Z,19.43
2022-10-15T10:04:14.737Z,19.71
2022-10-15T10:06:47.849Z,19.90
2022-10-15T10:09:19.342Z,19.55
2022-10-15T10:11:49.139Z,19.55
2022-10-15T10:14:24.290Z,19.65
2022-10-15T10:17:06.890Z,19.77
2022-10-15T10:19:36.080Z,19.71
2022-10-15T10:22:13.082Z,19.98
2022-10-15T10:24:40.919Z,19.90
2022-10-15T10:27:19.955Z,19.63
2022-10-15T10:29:51.296Z,19.91
2022-10-15T10:32:20.786Z,19.72
2022-10-15T10:34:52.737Z,20.14
2022-10-15T10:37:21.421Z,19.62
2022-10-15T10:39:54.268Z,19.24
2022-10-15T10:42:33.397Z,19.30
2022-10-15T10:45:22.155Z,19.23
2022-10-15T10:47:50.214Z,19.51
2022-10-15T10:50:37.644Z,19.52
2022-10-15T10:53:25.265Z,19.85
2022-10-15T10:55:53.942Z,20.53
2022-10-15T10:58:29.125Z,20.35
2022-10-15T11:00:58.593Z,19.84
2022-10-15T11:03:34.750Z,19.82
2022-10-15T11:06:29.378Z,20.36
2022-10-15T11:09:05.755Z,19.99
2022-10-15T11:11:38.356Z,20.09
2022-10-15T11:14:17.182Z,20.01
2022-10-15T11:16:50.212Z,20.35
2022-10-15T11:19:50.786Z,19.91
2022-10-15T11:22:45.890Z,19.62
2022-10-15T11:25:22.501Z,18.98
2022-10-15T11:28:02.462Z,18.80
2022-10-15T11:30:39.831Z,18.87
2022-10-15T11:33:22.359Z,18.97
2022-10-15T11:35:56.941Z,18.90
2022-10-15T11:38:31.246Z,18.99
2022-10-15T11:41:31.653Z,20.05
2022-10-15T11:44:15.497Z,20.93
2022-10-15T11:46:48.472Z,20.80
2022-10-15T11:49:27.122Z,20.72
2022-10-15T11:52:07.136Z,20.84
2022-10-15T11:54:39.834Z,21.31
2022-10-15T11:57:10.289Z,21.21
2022-10-15T11:59:42.921Z,20.90
2022-10-15T12:02:13.901Z,21.35
2022-10-15T12:04:43.830Z,21.18
2022-10-15T12:07:17.221Z,21.51
2022-10-15T12:09:51.899Z,21.05
2022-10-15T12:12:26.938Z,21.06
2022-10-15T12:15:05.658Z,20.66
2022-10-15T12:17:39.775Z,21.18
2022-10-15T12:20:11.922Z,21.15
2022-10-15T12:22:41.060Z,22.24
2022-10-15T12:25:46.057Z,21.65
2022-10-15T12:28:17.441Z,21.54
2022-10-15T12:30:55.698Z,21.32
2022-10-15T12:33:27.097Z,21.05
2022-10-15T12:35:56.932Z,21.13
2022-10-15T12:38:29.157Z,20.90
2022-10-15T12:41:00.928Z,20.81
2022-10-15T12:43:29.480Z,20.95
2022-10-15T12:45:59.140Z,20.89
2022-10-15T12:48:34.676Z,20.60
2022-10-15T12:51:32.334Z,20.39
2022-10-15T12:54:02.346Z,20.06
2022-10-15T12:56:41.763Z,20.02
2022-10-15T12:59:32.814Z,20.23
2022-10-15T13:02:03.067Z,20.14
2022-10-15T13:04:40.776Z,20.72
2022-10-15T13:07:13.766Z,20.89
2022-10-15T13:09:42.689Z,21.19
2022-10-15T13:12:23.909Z,20.82
2022-10-15T13:14:56.145Z,20.97
2022-10-15T13:17:24.141Z,21.12
2022-10-15T13:19:58.289Z,20.87
2022-10-15T13:22:28.053Z,20.62
2022-10-15T13:24:56.681Z,20.73
2022-10-15T13:27:27.833Z,20.61
2022-10-15T13:29:59.563Z,20.68
2022-10-15T13:32:28.881Z,20.87
2022-10-15T13:34:57.445Z,20.99
2022-10-15T13:37:30.704Z,21.16
2022-10-15T13:40:00.636Z,20.71
2022-10-15T13:42:32.481Z,20.78
2022-10-15T13:45:03.135Z,20.96
2022-10-15T13:47:34.221Z,20.48
2022-10-15T13:50:17.708Z,20.82
2022-10-15T13:52:48.040Z,20.78
2022-10-15T13:55:21.130Z,21.09
2022-10-15T13:57:51.567Z,21.05
2022-10-15T14:00:24.539Z,20.93
2022-10-15T14:03:16.257Z,20.87
2022-10-15T14:05:44.429Z,20.83
2022-10-15T14:08:21.569Z,20.57
2022-10-15T14:10:50.442Z,20.80
2022-10-15T14:13:19.626Z,20.79
2022-10-15T14:15:51.570Z,20.76
2022-10-15T14:18:28.838Z,20.76
2022-10-15T14:20:56.656Z,20.93
2022-10-15T14:23:25.553Z,21.25
2022-10-15T14:25:55.468Z,21.25
2022-10-15T14:28:25.636Z,21.00
2022-10-15T14:30:53.606Z,20.85
2022-10-15T14:33:40.437Z,20.72
2022-10-15T14:36:10.649Z,20.64
2022-10-15T14:38:38.965Z,20.69
2022-10-15T14:41:25.771Z,20.56
2022-10-15T14:44:07.129Z,20.72
2022-10-15T14:46:41.277Z,20.77
2022-10-15T14:49:21.954Z,20.61
2022-10-15T14:51:57.981Z,20.85
2022-10-15T14:54:31.098Z,20.53
2022-10-15T14:56:59.125Z,20.94
2022-10-15T14:59:32.627Z,21.03
2022-10-15T15:02:03.026Z,20.93
2022-10-15T15:04:38.255Z,20.77
2022-10-15T15:07:13.052Z,20.72
2022-10-15T15:09:41.893Z,20.63
2022-10-15T15:12:20.789Z,20.61
2022-10-15T15:14:52.084Z,20.53
2022-10-15T15:17:22.029Z,20.39
2022-10-15T15:19:51.631Z,20.18
2022-10-15T15:22:24.468Z,20.34
2022-10-15T15:24:52.437Z,20.44
2022-10-15T15:27:24.328Z,20.23
2022-10-15T15:29:53.799Z,20.30
2022-10-15T15:32:23.417Z,20.16
2022-10-15T15:34:52.509Z,20.13
2022-10-15T15:37:22.703Z,19.80
2022-10-15T15:39:50.810Z,19.90
2022-10-15T15:42:20.096Z,19.91
2022-10-15T15:44:47.942Z,20.12
2022-10-15T15:47:17.479Z,19.90
2022-10-15T15:49:45.251Z,20.34
2022-10-15T15:52:16.724Z,20.56
2022-10-15T15:54:45.329Z,20.84
2022-10-15T15:57:13.084Z,20.91
2022-10-15T15:59:40.980Z,20.49
2022-10-15T16:02:08.826Z,19.21
2022-10-15T16:04:38.102Z,20.83
2022-10-15T16:07:08.962Z,19.61
2022-10-15T16:09:39.519Z,19.59
2022-10-15T16:12:07.245Z,19.74
2022-10-15T16:14:35.005Z,20.22
2022-10-15T16:17:02.795Z,20.20
2022-10-15T16:19:30.580Z,20.64
2022-10-15T16:21:59.683Z,19.96
2022-10-15T16:24:27.393Z,19.73
2022-10-15T16:26:55.165Z,19.77
2022-10-15T16:29:22.998Z,19.86
2022-10-15T16:31:50.749Z,19.72
2022-10-15T16:34:18.478Z,20.15
2022-10-15T16:36:46.197Z,20.49
2022-10-15T16:39:15.405Z,20.76
2022-10-15T16:41:43.156Z,20.79
2022-10-15T16:44:10.969Z,20.26
2022-10-15T16:46:38.700Z,19.56
2022-10-15T16:49:06.498Z,19.56
2022-10-15T16:51:37.501Z,19.11
2022-10-15T16:54:07.655Z,19.51
2022-10-15T16:56:38.081Z,19.83
2022-10-15T16:59:06.062Z,19.89
2022-10-15T17:01:33.896Z,19.88
2022-10-15T17:04:01.710Z,19.73
2022-10-15T17:06:30.612Z,19.52
2022-10-15T17:08:59.307Z,19.52
2022-10-15T17:11:28.612Z,19.33
2022-10-15T17:13:58.924Z,19.65
2022-10-15T17:16:28.090Z,19.25
2022-10-15T17:18:56.731Z,19.77
2022-10-15T17:21:26.189Z,19.86
2022-10-15T17:23:54.913Z,19.37
2022-10-15T17:26:24.671Z,18.89
2022-10-15T17:28:52.826Z,18.47
2022-10-15T17:31:24.108Z,18.18
2022-10-15T17:33:55.998Z,18.21
2022-10-15T17:36:25.053Z,18.36
2022-10-15T17:38:52.851Z,18.33
2022-10-15T17:41:22.406Z,18.66
2022-10-15T17:43:50.638Z,18.54
2022-10-15T17:46:19.953Z,18.67
2022-10-15T17:48:49.290Z,18.69
2022-10-15T17:51:18.596Z,18.77
2022-10-15T17:53:47.083Z,18.87
2022-10-15T17:56:16.365Z,18.93
2022-10-15T17:58:45.049Z,19.08
2022-10-15T18:01:14.814Z,19.42
2022-10-15T18:03:46.698Z,19.39
2022-10-15T18:06:19.171Z,19.10
2022-10-15T18:08:47.164Z,19.34
2022-10-15T18:11:16.436Z,19.44
2022-10-15T18:13:44.584Z,19.55
2022-10-15T18:16:12.393Z,19.60
2022-10-15T18:18:40.121Z,19.77
2022-10-15T18:21:10.224Z,19.69
2022-10-15T18:23:39.993Z,19.76
2022-10-15T18:26:09.814Z,19.57
2022-10-15T18:28:37.808Z,19.66
2022-10-15T18:31:07.874Z,19.59
2022-10-15T18:33:39.830Z,19.70
2022-10-15T18:36:09.121Z,19.78
2022-10-15T18:38:36.880Z,19.75
2022-10-15T18:41:13.395Z,19.67
2022-10-15T18:43:41.127Z,19.68
2022-10-15T18:46:09.103Z,19.62
2022-10-15T18:48:38.059Z,19.15
2022-10-15T18:51:09.971Z,19.19
2022-10-15T18:53:38.178Z,19.12
2022-10-15T18:56:08.014Z,19.47
2022-10-15T18:58:36.479Z,19.55
2022-10-15T19:01:11.575Z,19.54
2022-10-15T19:03:39.382Z,19.81
2022-10-15T19:06:09.239Z,19.50
2022-10-15T19:08:36.982Z,19.39
2022-10-15T19:11:08.612Z,19.16
2022-10-15T19:13:36.486Z,18.78
2022-10-15T19:16:04.422Z,18.58
2022-10-15T19:18:32.802Z,18.72
2022-10-15T19:21:00.615Z,18.73
2022-10-15T19:23:28.409Z,18.94
2022-10-15T19:25:57.673Z,18.75
2022-10-15T19:28:27.395Z,18.67
2022-10-15T19:30:56.473Z,18.69
2022-10-15T19:33:24.713Z,18.74
2022-10-15T19:35:52.508Z,18.60
2022-10-15T19:38:20.622Z,18.60
2022-10-15T19:40:50.201Z,18.54
2022-10-15T19:43:19.221Z,18.24
2022-10-15T19:45:48.692Z,18.17
2022-10-15T19:48:17.989Z,18.19
2022-10-15T19:50:46.896Z,18.44
2022-10-15T19:53:17.165Z,18.56
2022-10-15T19:58:14.987Z,18.15
2022-10-15T20:00:42.737Z,18.02
2022-10-15T20:03:11.816Z,18.09
2022-10-15T20:05:43.565Z,18.16
2022-10-15T20:08:11.397Z,17.98
2022-10-15T20:10:40.998Z,18.09
2022-10-15T20:13:09.145Z,18.09
2022-10-15T20:15:41.198Z,18.07
2022-10-15T20:18:09.049Z,17.68
2022-10-15T20:20:38.689Z,17.68
2022-10-15T20:23:06.541Z,17.75
2022-10-15T20:25:34.877Z,17.87
2022-10-15T20:28:02.633Z,17.44
2022-10-15T20:30:30.375Z,17.10
2022-10-15T20:32:58.132Z,17.09
2022-10-15T20:35:25.913Z,17.12
2022-10-15T20:37:55.096Z,17.02
2022-10-15T20:40:22.870Z,17.13
2022-10-15T20:42:50.718Z,17.34
2022-10-15T20:45:18.644Z,17.19
2022-10-15T20:47:49.827Z,17.11
2022-10-15T20:50:20.569Z,17.04
2022-10-15T20:52:48.750Z,17.27
2022-10-15T20:55:18.219Z,17.10
2022-10-15T20:57:45.934Z,16.75
2022-10-15T21:00:14.754Z,16.59
2022-10-15T21:02:42.695Z,16.87
2022-10-15T21:05:10.908Z,17.12
2022-10-15T21:07:38.593Z,16.74
2022-10-15T21:10:07.065Z,16.85
2022-10-15T21:12:36.443Z,16.63
2022-10-15T21:15:04.219Z,16.54
2022-10-15T21:17:31.924Z,16.67
2022-10-15T21:20:00.224Z,16.46
2022-10-15T21:22:27.964Z,16.55
2022-10-15T21:24:55.761Z,16.82
2022-10-15T21:27:23.746Z,16.64
2022-10-15T21:29:53.056Z,16.54
2022-10-15T21:32:20.809Z,16.73
2022-10-15T21:34:48.572Z,16.66
2022-10-15T21:37:16.306Z,16.79
2022-10-15T21:39:44.013Z,16.82
2022-10-15T21:42:12.234Z,16.90
2022-10-15T21:44:40.023Z,16.53
2022-10-15T21:47:10.472Z,16.67
2022-10-15T21:49:41.597Z,16.67
2022-10-15T21:52:09.365Z,16.60
2022-10-15T21:54:37.081Z,16.90
2022-10-15T21:57:06.102Z,16.64
2022-10-15T21:59:33.915Z,16.56
2022-10-15T22:02:01.742Z,16.70
2022-10-15T22:04:34.043Z,16.82
2022-10-15T22:07:01.837Z,16.82
2022-10-15T22:09:29.740Z,16.80
2022-10-15T22:11:57.616Z,16.82
2022-10-15T22:14:25.364Z,17.08
2022-10-15T22:16:53.142Z,16.78
2022-10-15T22:19:20.893Z,16.82
2022-10-15T22:21:49.972Z,16.69
2022-10-15T22:24:20.073Z,16.91
2022-10-15T22:26:49.664Z,16.52
2022-10-15T22:29:20.526Z,16.52
2022-10-15T22:31:48.491Z,16.87
2022-10-15T22:34:16.372Z,16.65
2022-10-15T22:36:44.217Z,16.85
2022-10-15T22:39:15.461Z,17.00
2022-10-15T22:41:45.332Z,16.78
2022-10-15T22:44:14.839Z,16.76
2022-10-15T22:46:46.016Z,16.86
2022-10-15T22:49:15.138Z,16.80
2022-10-15T22:51:43.113Z,16.69
2022-10-15T22:54:10.966Z,16.99
2022-10-15T22:56:40.073Z,16.88
2022-10-15T23:01:36.235Z,16.61
2022-10-15T23:04:05.886Z,16.84
2022-10-15T23:06:35.761Z,16.77
2022-10-15T23:09:04.399Z,16.76
2022-10-15T23:11:33.441Z,16.71
2022-10-15T23:14:04.235Z,16.70
2022-10-15T23:16:33.562Z,16.88
2022-10-15T23:19:03.169Z,16.83
2022-10-15T23:21:33.617Z,16.94
2022-10-15T23:24:01.897Z,16.92
2022-10-15T23:26:30.120Z,16.83
2022-10-15T23:28:59.964Z,16.89
2022-10-15T23:31:31.409Z,16.59
2022-10-15T23:33:59.767Z,16.79
2022-10-15T23:36:28.441Z,17.00
2022-10-15T23:38:57.845Z,17.11
2022-10-15T23:41:26.497Z,17.19
2022-10-15T23:43:54.314Z,17.26
2022-10-15T23:46:22.257Z,17.31
2022-10-15T23:48:51.779Z,17.27
2022-10-15T23:51:20.563Z,17.26
2022-10-15T23:53:48.691Z,17.35
2022-10-15T23:56:16.978Z,17.32
2022-10-15T23:58:48.833Z,17.28
